Time;durP1;ratioP1;P1;durP2;ratioP2;P2;SDS_P1;SDS_P2;PMS_P1;PMS_P2;Temp;Humidity;BMP_temperature;BMP_pressure;BME280_temperature;BME280_humidity;BME280_pressure;Samples;Min_cycle;Max_cycle;Signal;HPM_P1;HPM_P2
2023/02/25 00:00:52;;;;;;;;;;;;;;;;;;4942101;28;20504;-70
2023/02/25 00:03:18;;;;;;;;;;;;;;;;;;4938264;28;19914;-70
2023/02/25 00:05:44;;;;;;;;;;;;;;;;;;4956857;28;19925;-70
2023/02/25 00:08:10;;;;;;;;;;;;;;;;;;4941529;28;20012;-70
2023/02/25 00:10:36;;;;;;;;;;;;;;;;;;4955770;28;20367;-70
2023/02/25 00:13:02;;;;;;;;;;;;;;;;;;4943322;28;20195;-70
2023/02/25 00:15:28;;;;;;;;;;;;;;;;;;4956163;28;19913;-71
2023/02/25 00:17:54;;;;;;;;;;;;;;;;;;4952579;28;20278;-70
2023/02/25 00:20:21;;;;;;;;;;;;;;;;;;4949505;28;19914;-70
2023/02/25 00:22:47;;;;;;;;;;;;;;;;;;4945591;28;20409;-70
2023/02/25 00:25:15;;;;;;;;;;;;;;;;;;4955837;28;19917;-70
2023/02/25 00:28:04;;;;;;;;;;;;;;;;;;5037318;28;19932;-71
2023/02/25 00:30:30;;;;;;;;;;;;;;;;;;5027681;28;20571;-71
2023/02/25 00:32:56;;;;;;;;;;;;;;;;;;5032313;28;20487;-71
2023/02/25 00:35:22;;;;;;;;;;;;;;;;;;5029063;28;19917;-71
2023/02/25 00:37:49;;;;;;;;;;;;;;;;;;5031012;28;19917;-71
2023/02/25 00:40:15;;;;;;;;;;;;;;;;;;5027459;28;19921;-71
2023/02/25 00:42:41;;;;;;;;;;;;;;;;;;5041149;28;19994;-71
2023/02/25 00:45:07;;;;;;;;;;;;;;;;;;5026433;28;19928;-70
2023/02/25 00:47:33;;;;;;;;;;;;;;;;;;5030786;28;19952;-71
2023/02/25 00:49:59;;;;;;;;;;;;;;;;;;5029522;28;19925;-71
2023/02/25 00:52:25;;;;;;;;;;;;;;;;;;5024135;28;19967;-71
2023/02/25 00:54:51;;;;;;;;;;;;;;;;;;5033553;28;19917;-72
2023/02/25 00:57:17;;;;;;;;;;;;;;;;;;5028579;28;20784;-69
2023/02/25 00:59:43;;;;;;;;;;;;;;;;;;5033159;28;20002;-71
2023/02/25 01:02:09;;;;;;;;;;;;;;;;;;5033851;28;20354;-71
2023/02/25 01:04:35;;;;;;;;;;;;;;;;;;5028449;28;19926;-71
2023/02/25 01:07:01;;;;;;;;;;;;;;;;;;5027770;28;19921;-71
2023/02/25 01:09:27;;;;;;;;;;;;;;;;;;5025815;28;19967;-71
2023/02/25 01:11:53;;;;;;;;;;;;;;;;;;5029415;28;19945;-70
2023/02/25 01:14:19;;;;;;;;;;;;;;;;;;5026557;28;19987;-70
2023/02/25 01:16:45;;;;;;;;;;;;;;;;;;5029657;28;19950;-70
2023/02/25 01:19:11;;;;;;;;;;;;;;;;;;5029464;28;20017;-70
2023/02/25 01:21:37;;;;;;;;;;;;;;;;;;5034596;28;19920;-70
2023/02/25 01:24:03;;;;;;;;;;;;;;;;;;5031937;28;19917;-71
2023/02/25 01:26:29;;;;;;;;;;;;;;;;;;5033529;28;19931;-71
2023/02/25 01:28:55;;;;;;;;;;;;;;;;;;5036077;28;20700;-70
2023/02/25 01:31:28;;;;;;;;;;;;;;;;;;5031804;28;19923;-70
2023/02/25 01:33:53;;;;;;;;;;;;;;;;;;5032731;28;20385;-70
2023/02/25 01:36:19;;;;;;;;;;;;;;;;;;5025053;28;20096;-70
2023/02/25 01:38:45;;;;;;;;;;;;;;;;;;5034566;28;20417;-69
2023/02/25 01:41:11;;;;;;;;;;;;;;;;;;5023194;28;20424;-71
2023/02/25 01:43:37;;;;;;;;;;;;;;;;;;5020567;28;20447;-71
2023/02/25 01:46:03;;;;;;;;;;;;;;;;;;5023991;28;20004;-70
2023/02/25 01:48:29;;;;;;;;;;;;;;;;;;5016193;28;19975;-70
2023/02/25 01:50:56;;;;;;;;;;;;;;;;;;5018557;28;20363;-70
2023/02/25 01:53:22;;;;;;;;;;;;;;;;;;5017042;28;20023;-70
2023/02/25 01:55:48;;;;;;;;;;;;;;;;;;5027809;28;19917;-70
2023/02/25 01:58:14;;;;;;;;;;;;;;;;;;5024181;28;19920;-70
2023/02/25 02:00:40;;;;;;;;;;;;;;;;;;5019613;28;20406;-70
2023/02/25 02:03:14;;;;;;;;;;;;;;;;;;5022991;28;19963;-70
2023/02/25 02:05:40;;;;;;;;;;;;;;;;;;5017568;28;19923;-70
2023/02/25 02:08:06;;;;;;;;;;;;;;;;;;5019901;28;19920;-71
2023/02/25 02:10:32;;;;;;;;;;;;;;;;;;5016742;28;20355;-71
2023/02/25 02:12:58;;;;;;;;;;;;;;;;;;5021508;28;20302;-71
2023/02/25 02:15:24;;;;;;;;;;;;;;;;;;5017980;28;20605;-71
2023/02/25 02:17:50;;;;;;;;;;;;;;;;;;5023352;28;20144;-71
2023/02/25 02:20:19;;;;;;;;;;;;;;;;;;5017359;28;20185;-71
2023/02/25 02:22:45;;;;;;;;;;;;;;;;;;5018367;28;20012;-70
2023/02/25 02:25:11;;;;;;;;;;;;;;;;;;5021250;28;19916;-72
2023/02/25 02:27:38;;;;;;;;;;;;;;;;;;5018787;28;19925;-70
2023/02/25 02:30:04;;;;;;;;;;;;;;;;;;5021865;28;19916;-70
2023/02/25 02:32:30;;;;;;;;;;;;;;;;;;5016116;28;20358;-70
2023/02/25 02:34:56;;;;;;;;;;;;;;;;;;5022191;28;19994;-69
2023/02/25 02:37:22;;;;;;;;;;;;;;;;;;5019976;28;19999;-71
2023/02/25 02:39:48;;;;;;;;;;;;;;;;;;5021501;28;19990;-70
2023/02/25 02:42:14;;;;;;;;;;;;;;;;;;5024161;28;19925;-71
2023/02/25 02:44:40;;;;;;;;;;;;;;;;;;5018720;28;19963;-71
2023/02/25 02:47:06;;;;;;;;;;;;;;;;;;5024489;28;20235;-71
2023/02/25 02:49:32;;;;;;;;;;;;;;;;;;5019272;28;19917;-70
2023/02/25 02:51:58;;;;;;;;;;;;;;;;;;5028419;28;19939;-71
2023/02/25 02:54:24;;;;;;;;;;;;;;;;;;5013384;28;19986;-71
2023/02/25 02:56:49;;;;;;;;;;;;;;;;;;5026977;28;20306;-71
2023/02/25 02:59:15;;;;;;;;;;;;;;;;;;5026085;28;20023;-71
2023/02/25 03:01:41;;;;;;;;;;;;;;;;;;5015524;28;19955;-71
2023/02/25 03:04:07;;;;;;;;;;;;;;;;;;5020258;28;19926;-70
2023/02/25 03:06:33;;;;;;;;;;;;;;;;;;5010705;28;19928;-71
2023/02/25 03:08:59;;;;;;;;;;;;;;;;;;5014867;28;19924;-72
2023/02/25 03:11:25;;;;;;;;;;;;;;;;;;5027505;28;20228;-70
2023/02/25 03:13:51;;;;;;;;;;;;;;;;;;5018741;28;19932;-71
2023/02/25 03:16:17;;;;;;;;;;;;;;;;;;5023451;28;19921;-69
2023/02/25 03:18:43;;;;;;;;;;;;;;;;;;5018253;28;19917;-70
2023/02/25 03:21:09;;;;;;;;;;;;;;;;;;5024604;28;20546;-70
2023/02/25 03:23:35;;;;;;;;;;;;;;;;;;5021139;28;19916;-70
2023/02/25 03:26:01;;;;;;;;;;;;;;;;;;5020370;28;19974;-70
2023/02/25 03:28:29;;;;;;;;;;;;;;;;;;5016190;28;20678;-70
2023/02/25 03:30:55;;;;;;;;;;;;;;;;;;5022921;28;19990;-70
2023/02/25 03:33:21;;;;;;;;;;;;;;;;;;5021441;28;20231;-70
2023/02/25 03:35:47;;;;;;;;;;;;;;;;;;5025922;28;19924;-70
2023/02/25 03:38:13;;;;;;;;;;;;;;;;;;5026578;28;19917;-69
2023/02/25 03:40:39;;;;;;;;;;;;;;;;;;5022058;28;19917;-70
2023/02/25 03:43:05;;;;;;;;;;;;;;;;;;5022202;28;19917;-69
2023/02/25 03:45:31;;;;;;;;;;;;;;;;;;5019864;28;19925;-70
2023/02/25 03:47:58;;;;;;;;;;;;;;;;;;5022290;28;19931;-70
2023/02/25 03:50:24;;;;;;;;;;;;;;;;;;5013869;28;19916;-69
2023/02/25 03:52:50;;;;;;;;;;;;;;;;;;5019305;28;20315;-70
2023/02/25 03:55:15;;;;;;;;;;;;;;;;;;5019906;28;19928;-70
2023/02/25 03:57:41;;;;;;;;;;;;;;;;;;5016483;28;20315;-70
2023/02/25 04:00:14;;;;;;;;;;;;;;;;;;5024409;28;19916;-71
2023/02/25 04:02:40;;;;;;;;;;;;;;;;;;5022419;28;20175;-69
2023/02/25 04:05:09;;;;;;;;;;;;;;;;;;5037482;28;19920;-70
2023/02/25 04:07:35;;;;;;;;;;;;;;;;;;5024440;28;20026;-69
2023/02/25 04:10:01;;;;;;;;;;;;;;;;;;5023106;28;20347;-69
2023/02/25 04:12:27;;;;;;;;;;;;;;;;;;5019301;28;19921;-70
2023/02/25 04:14:53;;;;;;;;;;;;;;;;;;5020278;28;19924;-71
2023/02/25 04:17:19;;;;;;;;;;;;;;;;;;5022880;28;19959;-71
2023/02/25 04:19:45;;;;;;;;;;;;;;;;;;5026293;28;20681;-71
2023/02/25 04:22:11;;;;;;;;;;;;;;;;;;5023662;28;20011;-71
2023/02/25 04:24:37;;;;;;;;;;;;;;;;;;5019200;28;21509;-71
2023/02/25 04:27:03;;;;;;;;;;;;;;;;;;5015003;28;20285;-69
2023/02/25 04:29:29;;;;;;;;;;;;;;;;;;5023826;28;20397;-71
2023/02/25 04:31:55;;;;;;;;;;;;;;;;;;5025211;28;20294;-70
2023/02/25 04:34:21;;;;;;;;;;;;;;;;;;5019151;28;19924;-70
2023/02/25 04:36:47;;;;;;;;;;;;;;;;;;5021211;28;19921;-70
2023/02/25 04:39:13;;;;;;;;;;;;;;;;;;5013732;28;19924;-70
2023/02/25 04:41:39;;;;;;;;;;;;;;;;;;5016023;28;19924;-71
2023/02/25 04:44:05;;;;;;;;;;;;;;;;;;5016829;28;20392;-70
2023/02/25 04:46:31;;;;;;;;;;;;;;;;;;5018907;28;20015;-71
2023/02/25 04:48:57;;;;;;;;;;;;;;;;;;5019455;28;19956;-71
2023/02/25 04:51:23;;;;;;;;;;;;;;;;;;5020732;28;20622;-71
2023/02/25 04:53:49;;;;;;;;;;;;;;;;;;5023734;28;19917;-71
2023/02/25 04:56:15;;;;;;;;;;;;;;;;;;5022681;28;19928;-71
2023/02/25 04:58:41;;;;;;;;;;;;;;;;;;5017471;28;20036;-71
2023/02/25 05:01:07;;;;;;;;;;;;;;;;;;5016588;28;20322;-71
2023/02/25 05:03:33;;;;;;;;;;;;;;;;;;5021332;28;19979;-72
2023/02/25 05:05:59;;;;;;;;;;;;;;;;;;5019437;28;19925;-71
2023/02/25 05:08:25;;;;;;;;;;;;;;;;;;5017861;28;20186;-71
2023/02/25 05:10:51;;;;;;;;;;;;;;;;;;5019548;28;20427;-71
2023/02/25 05:13:17;;;;;;;;;;;;;;;;;;5022656;28;20457;-71
2023/02/25 05:15:43;;;;;;;;;;;;;;;;;;5027511;28;20305;-71
2023/02/25 05:18:09;;;;;;;;;;;;;;;;;;5027395;28;19917;-71
2023/02/25 05:20:35;;;;;;;;;;;;;;;;;;5025818;28;20411;-72
2023/02/25 05:23:01;;;;;;;;;;;;;;;;;;5026082;28;20028;-71
2023/02/25 05:25:27;;;;;;;;;;;;;;;;;;5021442;28;20338;-71
2023/02/25 05:27:53;;;;;;;;;;;;;;;;;;5025526;28;19967;-71
2023/02/25 05:30:19;;;;;;;;;;;;;;;;;;5021393;28;19928;-71
2023/02/25 05:32:45;;;;;;;;;;;;;;;;;;5022226;28;20219;-72
2023/02/25 05:35:11;;;;;;;;;;;;;;;;;;5024935;28;19947;-70
2023/02/25 05:37:37;;;;;;;;;;;;;;;;;;5022510;28;20219;-71
2023/02/25 05:40:03;;;;;;;;;;;;;;;;;;5022801;28;19939;-70
2023/02/25 05:42:29;;;;;;;;;;;;;;;;;;5019269;28;19950;-70
2023/02/25 05:44:55;;;;;;;;;;;;;;;;;;5020218;28;19924;-72
2023/02/25 05:47:21;;;;;;;;;;;;;;;;;;5017940;28;20444;-70
2023/02/25 05:49:47;;;;;;;;;;;;;;;;;;5026050;28;20131;-72
2023/02/25 05:52:13;;;;;;;;;;;;;;;;;;5026810;28;19967;-71
2023/02/25 05:54:39;;;;;;;;;;;;;;;;;;5023738;28;19917;-71
2023/02/25 05:57:04;;;;;;;;;;;;;;;;;;5016879;28;20412;-72
2023/02/25 05:59:30;;;;;;;;;;;;;;;;;;5023420;28;20011;-70
2023/02/25 06:01:56;;;;;;;;;;;;;;;;;;5022205;28;19945;-71
2023/02/25 06:04:22;;;;;;;;;;;;;;;;;;5018873;28;20381;-70
2023/02/25 06:06:50;;;;;;;;;;;;;;;;;;5020326;28;20012;-70
2023/02/25 06:09:17;;;;;;;;;;;;;;;;;;5019162;28;20282;-71
2023/02/25 06:11:43;;;;;;;;;;;;;;;;;;5020578;28;19924;-70
2023/02/25 06:14:09;;;;;;;;;;;;;;;;;;5020493;28;19956;-71
2023/02/25 06:16:35;;;;;;;;;;;;;;;;;;5015663;28;19916;-70
2023/02/25 06:19:01;;;;;;;;;;;;;;;;;;5019672;28;19917;-70
2023/02/25 06:21:27;;;;;;;;;;;;;;;;;;5018711;28;19928;-70
2023/02/25 06:23:53;;;;;;;;;;;;;;;;;;5018546;28;19917;-70
2023/02/25 06:26:19;;;;;;;;;;;;;;;;;;5018029;28;19925;-70
2023/02/25 06:28:45;;;;;;;;;;;;;;;;;;5020195;28;20228;-71
2023/02/25 06:31:11;;;;;;;;;;;;;;;;;;5017513;28;20085;-71
2023/02/25 06:33:38;;;;;;;;;;;;;;;;;;5019297;28;25159;-71
2023/02/25 06:36:04;;;;;;;;;;;;;;;;;;5020214;28;19956;-70
2023/02/25 06:38:30;;;;;;;;;;;;;;;;;;5020351;28;19965;-70
2023/02/25 06:40:56;;;;;;;;;;;;;;;;;;5020292;28;20008;-71
2023/02/25 06:43:22;;;;;;;;;;;;;;;;;;5019120;28;19917;-71
2023/02/25 06:45:48;;;;;;;;;;;;;;;;;;5017739;28;20049;-71
2023/02/25 06:48:14;;;;;;;;;;;;;;;;;;5016630;28;19917;-72
2023/02/25 06:50:39;;;;;;;;;;;;;;;;;;5019935;28;20285;-71
2023/02/25 06:53:06;;;;;;;;;;;;;;;;;;5019128;28;19943;-71
2023/02/25 06:55:32;;;;;;;;;;;;;;;;;;5021363;28;19916;-71
2023/02/25 06:57:58;;;;;;;;;;;;;;;;;;5016342;28;20461;-70
2023/02/25 07:00:24;;;;;;;;;;;;;;;;;;5011039;28;19917;-71
2023/02/25 07:02:50;;;;;;;;;;;;;;;;;;5019985;28;20310;-71
2023/02/25 07:05:16;;;;;;;;;;;;;;;;;;5017779;28;19924;-71
2023/02/25 07:07:42;;;;;;;;;;;;;;;;;;5019549;28;19976;-70
2023/02/25 07:10:09;;;;;;;;;;;;;;;;;;5024009;28;19946;-70
2023/02/25 07:12:35;;;;;;;;;;;;;;;;;;5014088;28;19929;-71
2023/02/25 07:15:01;;;;;;;;;;;;;;;;;;5020986;28;20382;-70
2023/02/25 07:17:27;;;;;;;;;;;;;;;;;;5021601;28;19917;-71
2023/02/25 07:19:53;;;;;;;;;;;;;;;;;;5020313;28;20418;-70
2023/02/25 07:22:19;;;;;;;;;;;;;;;;;;5018479;28;19920;-70
2023/02/25 07:24:45;;;;;;;;;;;;;;;;;;5018231;28;19913;-71
2023/02/25 07:27:11;;;;;;;;;;;;;;;;;;5021986;28;20035;-71
2023/02/25 07:29:37;;;;;;;;;;;;;;;;;;5017636;28;20715;-71
2023/02/25 07:32:03;;;;;;;;;;;;;;;;;;5019088;28;20460;-71
2023/02/25 07:34:29;;;;;;;;;;;;;;;;;;5016495;28;20778;-70
2023/02/25 07:39:40;;;;;;;;;;;;;;;;;;5017374;28;19924;-71
2023/02/25 07:42:06;;;;;;;;;;;;;;;;;;5013522;28;19921;-71
2023/02/25 07:44:34;;;;;;;;;;;;;;;;;;5015035;28;19916;-70
2023/02/25 07:47:00;;;;;;;;;;;;;;;;;;5022741;28;19932;-71
2023/02/25 07:49:25;;;;;;;;;;;;;;;;;;5017842;28;19921;-71
2023/02/25 07:51:51;;;;;;;;;;;;;;;;;;5021411;28;20359;-72
2023/02/25 07:54:20;;;;;;;;;;;;;;;;;;5019385;28;19987;-71
2023/02/25 07:56:46;;;;;;;;;;;;;;;;;;5017645;28;19924;-70
2023/02/25 07:59:12;;;;;;;;;;;;;;;;;;5015415;28;19925;-71
2023/02/25 08:01:38;;;;;;;;;;;;;;;;;;5011267;28;20594;-71
2023/02/25 08:04:04;;;;;;;;;;;;;;;;;;5020523;28;19952;-71
2023/02/25 08:06:30;;;;;;;;;;;;;;;;;;5014461;28;19921;-70
2023/02/25 08:08:56;;;;;;;;;;;;;;;;;;5013107;28;19983;-71
2023/02/25 08:11:22;;;;;;;;;;;;;;;;;;5008240;28;19996;-71
2023/02/25 08:13:48;;;;;;;;;;;;;;;;;;5021454;28;19921;-70
2023/02/25 08:16:14;;;;;;;;;;;;;;;;;;5012082;28;19927;-72
2023/02/25 08:18:41;;;;;;;;;;;;;;;;;;5011857;28;20773;-71
2023/02/25 08:21:07;;;;;;;;;;;;;;;;;;5014824;28;19943;-71
2023/02/25 08:23:33;;;;;;;;;;;;;;;;;;5014882;28;19921;-70
2023/02/25 08:25:59;;;;;;;;;;;;;;;;;;5013434;28;20476;-70
2023/02/25 08:28:25;;;;;;;;;;;;;;;;;;5017925;28;19917;-70
2023/02/25 08:30:51;;;;;;;;;;;;;;;;;;5013694;28;20442;-71
2023/02/25 08:33:17;;;;;;;;;;;;;;;;;;5021868;28;19916;-71
2023/02/25 08:35:43;;;;;;;;;;;;;;;;;;5021073;28;19917;-71
2023/02/25 08:38:11;;;;;;;;;;;;;;;;;;5019435;28;20437;-71
2023/02/25 08:40:38;;;;;;;;;;;;;;;;;;5016409;28;19917;-72
2023/02/25 08:43:04;;;;;;;;;;;;;;;;;;5017267;28;19953;-71
2023/02/25 08:45:30;;;;;;;;;;;;;;;;;;5014794;28;20338;-70
2023/02/25 08:47:56;;;;;;;;;;;;;;;;;;5023011;28;19925;-71
2023/02/25 08:50:22;;;;;;;;;;;;;;;;;;5018954;28;19929;-71
2023/02/25 08:52:48;;;;;;;;;;;;;;;;;;5021327;28;20191;-72
2023/02/25 08:55:14;;;;;;;;;;;;;;;;;;5026483;28;19916;-70
2023/02/25 08:57:40;;;;;;;;;;;;;;;;;;5015511;28;19991;-70
2023/02/25 09:00:08;;;;;;;;;;;;;;;;;;5023078;28;20444;-71
2023/02/25 09:02:34;;;;;;;;;;;;;;;;;;5023838;28;20347;-71
2023/02/25 09:05:00;;;;;;;;;;;;;;;;;;5029820;28;20266;-69
2023/02/25 09:07:26;;;;;;;;;;;;;;;;;;5020826;28;20340;-71
2023/02/25 09:09:52;;;;;;;;;;;;;;;;;;5026511;28;19916;-70
2023/02/25 09:12:18;;;;;;;;;;;;;;;;;;5018976;28;20392;-70
2023/02/25 09:14:44;;;;;;;;;;;;;;;;;;5023504;28;19917;-71
2023/02/25 09:17:10;;;;;;;;;;;;;;;;;;5021064;28;19967;-70
2023/02/25 09:19:39;;;;;;;;;;;;;;;;;;5019129;28;19916;-70
2023/02/25 09:22:05;;;;;;;;;;;;;;;;;;5024203;28;19918;-71
2023/02/25 09:24:32;;;;;;;;;;;;;;;;;;5023635;28;19923;-72
2023/02/25 09:26:58;;;;;;;;;;;;;;;;;;5024125;28;20040;-71
2023/02/25 09:29:24;;;;;;;;;;;;;;;;;;5022051;28;20423;-72
2023/02/25 09:31:52;;;;;;;;;;;;;;;;;;5027526;28;20248;-71
2023/02/25 09:34:19;;;;;;;;;;;;;;;;;;5023135;28;19962;-70
2023/02/25 09:36:45;;;;;;;;;;;;;;;;;;5025863;28;19921;-71
2023/02/25 09:39:11;;;;;;;;;;;;;;;;;;5024293;28;20085;-69
2023/02/25 09:41:37;;;;;;;;;;;;;;;;;;5019705;28;20035;-70
2023/02/25 09:44:04;;;;;;;;;;;;;;;;;;5018929;28;19999;-70
2023/02/25 09:46:30;;;;;;;;;;;;;;;;;;5015485;28;19925;-70
2023/02/25 09:48:56;;;;;;;;;;;;;;;;;;5021575;28;19959;-71
2023/02/25 09:51:22;;;;;;;;;;;;;;;;;;5021523;28;19999;-71
2023/02/25 09:53:48;;;;;;;;;;;;;;;;;;5028854;28;19916;-71
2023/02/25 09:56:14;;;;;;;;;;;;;;;;;;5020075;28;19917;-71
2023/02/25 09:58:40;;;;;;;;;;;;;;;;;;5025212;28;19959;-71
2023/02/25 10:01:06;;;;;;;;;;;;;;;;;;5019228;28;19914;-70
2023/02/25 10:03:32;;;;;;;;;;;;;;;;;;5021437;28;20381;-71
2023/02/25 10:05:58;;;;;;;;;;;;;;;;;;5019492;28;20003;-71
2023/02/25 10:08:24;;;;;;;;;;;;;;;;;;5024619;28;19924;-71
2023/02/25 10:10:50;;;;;;;;;;;;;;;;;;5025483;28;19916;-70
2023/02/25 10:13:16;;;;;;;;;;;;;;;;;;5020069;28;20365;-70
2023/02/25 10:15:42;;;;;;;;;;;;;;;;;;5017708;28;20437;-71
2023/02/25 10:18:10;;;;;;;;;;;;;;;;;;5026719;28;20044;-71
2023/02/25 10:20:37;;;;;;;;;;;;;;;;;;5024888;28;20134;-71
2023/02/25 10:23:03;;;;;;;;;;;;;;;;;;5025743;28;20034;-71
2023/02/25 10:25:29;;;;;;;;;;;;;;;;;;5021720;28;19988;-72
2023/02/25 10:27:55;;;;;;;;;;;;;;;;;;5030160;28;20679;-71
2023/02/25 10:30:21;;;;;;;;;;;;;;;;;;5020483;28;20199;-72
2023/02/25 10:32:47;;;;;;;;;;;;;;;;;;5027150;28;19971;-72
2023/02/25 10:35:13;;;;;;;;;;;;;;;;;;5020431;28;19920;-74
2023/02/25 10:37:39;;;;;;;;;;;;;;;;;;5020701;28;19935;-72
2023/02/25 10:40:09;;;;;;;;;;;;;;;;;;5023134;28;19917;-72
2023/02/25 10:42:35;;;;;;;;;;;;;;;;;;5018583;28;19933;-72
2023/02/25 10:45:01;;;;;;;;;;;;;;;;;;5019217;28;19923;-72
2023/02/25 10:47:27;;;;;;;;;;;;;;;;;;5016143;28;19931;-72
2023/02/25 10:49:53;;;;;;;;;;;;;;;;;;5020945;28;19921;-72
2023/02/25 10:52:19;;;;;;;;;;;;;;;;;;5026750;28;20253;-72
2023/02/25 10:54:46;;;;;;;;;;;;;;;;;;5023255;28;20016;-72
2023/02/25 10:57:12;;;;;;;;;;;;;;;;;;5026112;28;19946;-73
2023/02/25 10:59:38;;;;;;;;;;;;;;;;;;5020752;28;25353;-72
2023/02/25 11:02:04;;;;;;;;;;;;;;;;;;5024681;28;19928;-71
2023/02/25 11:04:30;;;;;;;;;;;;;;;;;;5016387;28;19917;-72
2023/02/25 11:06:56;;;;;;;;;;;;;;;;;;5025556;28;19931;-71
2023/02/25 11:09:22;;;;;;;;;;;;;;;;;;5023436;28;19917;-70
2023/02/25 11:11:48;;;;;;;;;;;;;;;;;;5024814;28;19956;-70
2023/02/25 11:14:14;;;;;;;;;;;;;;;;;;5017967;28;19921;-71
2023/02/25 11:16:40;;;;;;;;;;;;;;;;;;5013108;28;19967;-71
2023/02/25 11:19:06;;;;;;;;;;;;;;;;;;5019706;28;19969;-70
2023/02/25 11:21:32;;;;;;;;;;;;;;;;;;5017300;28;19924;-70
2023/02/25 11:24:00;;;;;;;;;;;;;;;;;;5019442;28;19921;-71
2023/02/25 11:26:26;;;;;;;;;;;;;;;;;;5016230;28;20466;-70
2023/02/25 11:28:52;;;;;;;;;;;;;;;;;;5017047;28;20766;-72
2023/02/25 11:31:18;;;;;;;;;;;;;;;;;;5022236;28;20220;-72
2023/02/25 11:33:44;;;;;;;;;;;;;;;;;;5019350;28;20698;-71
2023/02/25 11:36:10;;;;;;;;;;;;;;;;;;5022948;28;20282;-72
2023/02/25 11:38:36;;;;;;;;;;;;;;;;;;5018728;28;20362;-71
2023/02/25 11:41:02;;;;;;;;;;;;;;;;;;5018154;28;19917;-70
2023/02/25 11:43:30;;;;;;;;;;;;;;;;;;5013667;28;21160;-71
2023/02/25 11:45:56;;;;;;;;;;;;;;;;;;5017196;28;20090;-71
2023/02/25 11:48:22;;;;;;;;;;;;;;;;;;5019627;28;20699;-72
2023/02/25 11:50:48;;;;;;;;;;;;;;;;;;5023446;28;19924;-73
2023/02/25 11:53:14;;;;;;;;;;;;;;;;;;5024332;28;20512;-72
2023/02/25 11:55:40;;;;;;;;;;;;;;;;;;5012677;28;20733;-72
2023/02/25 11:58:06;;;;;;;;;;;;;;;;;;5017271;28;19917;-71
2023/02/25 12:00:32;;;;;;;;;;;;;;;;;;5019623;28;19970;-71
2023/02/25 12:02:58;;;;;;;;;;;;;;;;;;5020427;28;20684;-71
2023/02/25 12:05:24;;;;;;;;;;;;;;;;;;5020738;28;20022;-72
2023/02/25 12:07:52;;;;;;;;;;;;;;;;;;5019840;28;19968;-70
2023/02/25 12:10:18;;;;;;;;;;;;;;;;;;5022740;28;20399;-71
2023/02/25 12:12:44;;;;;;;;;;;;;;;;;;5020917;28;19930;-71
2023/02/25 12:15:10;;;;;;;;;;;;;;;;;;5012606;28;19925;-71
2023/02/25 12:17:36;;;;;;;;;;;;;;;;;;5014966;28;19917;-73
2023/02/25 12:20:03;;;;;;;;;;;;;;;;;;5021126;28;19913;-72
2023/02/25 12:22:29;;;;;;;;;;;;;;;;;;5016884;28;20326;-72
2023/02/25 12:24:55;;;;;;;;;;;;;;;;;;5019821;28;20524;-70
2023/02/25 12:27:22;;;;;;;;;;;;;;;;;;5019918;28;20286;-71
2023/02/25 12:29:48;;;;;;;;;;;;;;;;;;5015053;28;20319;-71
2023/02/25 12:32:14;;;;;;;;;;;;;;;;;;5022733;28;20420;-72
2023/02/25 12:34:40;;;;;;;;;;;;;;;;;;5010198;28;19921;-71
2023/02/25 12:37:06;;;;;;;;;;;;;;;;;;5018377;28;20517;-71
2023/02/25 12:39:32;;;;;;;;;;;;;;;;;;5014095;28;19923;-72
2023/02/25 12:41:59;;;;;;;;;;;;;;;;;;5022637;28;19990;-71
2023/02/25 12:44:25;;;;;;;;;;;;;;;;;;5013573;28;20016;-71
2023/02/25 12:46:51;;;;;;;;;;;;;;;;;;5019588;28;19921;-72
2023/02/25 12:49:17;;;;;;;;;;;;;;;;;;5020801;28;20337;-72
2023/02/25 12:51:43;;;;;;;;;;;;;;;;;;5019601;28;20227;-72
2023/02/25 12:54:09;;;;;;;;;;;;;;;;;;5021506;28;19917;-71
2023/02/25 12:56:35;;;;;;;;;;;;;;;;;;5020215;28;20748;-71
2023/02/25 12:59:01;;;;;;;;;;;;;;;;;;5018629;28;20369;-72
2023/02/25 13:01:27;;;;;;;;;;;;;;;;;;5015300;28;19916;-73
2023/02/25 13:03:53;;;;;;;;;;;;;;;;;;5016922;28;19917;-71
2023/02/25 13:06:19;;;;;;;;;;;;;;;;;;5021677;28;19995;-71
2023/02/25 13:08:45;;;;;;;;;;;;;;;;;;5016471;28;19917;-72
2023/02/25 13:11:11;;;;;;;;;;;;;;;;;;5012305;28;19917;-72
2023/02/25 13:13:37;;;;;;;;;;;;;;;;;;5014814;28;20193;-71
2023/02/25 13:16:03;;;;;;;;;;;;;;;;;;5017989;28;20387;-71
2023/02/25 13:18:29;;;;;;;;;;;;;;;;;;5014342;28;19917;-71
2023/02/25 13:20:56;;;;;;;;;;;;;;;;;;5014250;28;20007;-72
2023/02/25 13:23:22;;;;;;;;;;;;;;;;;;5009631;28;19917;-72
2023/02/25 13:25:47;;;;;;;;;;;;;;;;;;5012606;28;20209;-73
2023/02/25 13:28:14;;;;;;;;;;;;;;;;;;5014316;28;20018;-73
2023/02/25 13:30:40;;;;;;;;;;;;;;;;;;5009102;28;20025;-71
2023/02/25 13:33:06;;;;;;;;;;;;;;;;;;5018528;28;19921;-72
2023/02/25 13:35:32;;;;;;;;;;;;;;;;;;5015757;28;19943;-72
2023/02/25 13:37:58;;;;;;;;;;;;;;;;;;5017784;28;20374;-73
2023/02/25 13:40:24;;;;;;;;;;;;;;;;;;5015678;28;20807;-73
2023/02/25 13:42:50;;;;;;;;;;;;;;;;;;5021922;28;19947;-72
2023/02/25 13:45:16;;;;;;;;;;;;;;;;;;5022588;28;19959;-72
2023/02/25 13:47:42;;;;;;;;;;;;;;;;;;5018663;28;19925;-72
2023/02/25 13:50:08;;;;;;;;;;;;;;;;;;5012475;28;20080;-73
2023/02/25 13:52:34;;;;;;;;;;;;;;;;;;5014399;28;19917;-71
2023/02/25 13:55:00;;;;;;;;;;;;;;;;;;5016749;28;19952;-72
2023/02/25 13:57:26;;;;;;;;;;;;;;;;;;5016299;28;19959;-73
2023/02/25 13:59:51;;;;;;;;;;;;;;;;;;5015267;28;19956;-71
2023/02/25 14:02:18;;;;;;;;;;;;;;;;;;5020273;28;19935;-73
2023/02/25 14:04:44;;;;;;;;;;;;;;;;;;5014416;28;19938;-73
2023/02/25 14:07:10;;;;;;;;;;;;;;;;;;5018788;28;19920;-73
2023/02/25 14:09:36;;;;;;;;;;;;;;;;;;5015399;28;19943;-74
2023/02/25 14:12:02;;;;;;;;;;;;;;;;;;5019053;28;19920;-72
2023/02/25 14:14:28;;;;;;;;;;;;;;;;;;5012301;28;20000;-74
2023/02/25 14:16:54;;;;;;;;;;;;;;;;;;5015416;28;20388;-71
2023/02/25 14:19:20;;;;;;;;;;;;;;;;;;5019823;28;20169;-73
2023/02/25 14:21:46;;;;;;;;;;;;;;;;;;5016092;28;19920;-73
2023/02/25 14:24:12;;;;;;;;;;;;;;;;;;5015524;28;19921;-73
2023/02/25 14:26:38;;;;;;;;;;;;;;;;;;5014011;28;19940;-70
2023/02/25 14:29:06;;;;;;;;;;;;;;;;;;5015437;28;20232;-72
2023/02/25 14:31:32;;;;;;;;;;;;;;;;;;5010479;28;19928;-72
2023/02/25 14:33:58;;;;;;;;;;;;;;;;;;5023406;28;20709;-73
2023/02/25 14:36:25;;;;;;;;;;;;;;;;;;5014968;28;20058;-73
2023/02/25 14:38:51;;;;;;;;;;;;;;;;;;5019923;28;19947;-71
2023/02/25 14:41:17;;;;;;;;;;;;;;;;;;5021807;28;20406;-71
2023/02/25 14:43:43;;;;;;;;;;;;;;;;;;5012369;28;19916;-71
2023/02/25 14:46:09;;;;;;;;;;;;;;;;;;5020330;28;19920;-72
2023/02/25 14:48:35;;;;;;;;;;;;;;;;;;5016358;28;20397;-72
2023/02/25 14:51:01;;;;;;;;;;;;;;;;;;5019174;28;20247;-72
2023/02/25 14:53:27;;;;;;;;;;;;;;;;;;5016012;28;19917;-73
2023/02/25 14:55:53;;;;;;;;;;;;;;;;;;5015298;28;19917;-72
2023/02/25 14:58:19;;;;;;;;;;;;;;;;;;5016829;28;19924;-69
2023/02/25 15:00:45;;;;;;;;;;;;;;;;;;5020020;28;19972;-72
2023/02/25 15:03:11;;;;;;;;;;;;;;;;;;5015652;28;20033;-72
2023/02/25 15:05:37;;;;;;;;;;;;;;;;;;5016159;28;19925;-73
2023/02/25 15:08:03;;;;;;;;;;;;;;;;;;5014853;28;19929;-72
2023/02/25 15:10:29;;;;;;;;;;;;;;;;;;5009935;28;20030;-71
2023/02/25 15:12:55;;;;;;;;;;;;;;;;;;5013571;28;19970;-72
2023/02/25 15:15:21;;;;;;;;;;;;;;;;;;5015330;28;20392;-72
2023/02/25 15:17:49;;;;;;;;;;;;;;;;;;5021734;28;19924;-72
2023/02/25 15:20:15;;;;;;;;;;;;;;;;;;5018962;28;19920;-71
2023/02/25 15:22:41;;;;;;;;;;;;;;;;;;5015870;28;20179;-71
2023/02/25 15:25:07;;;;;;;;;;;;;;;;;;5016097;28;20312;-73
2023/02/25 15:27:33;;;;;;;;;;;;;;;;;;5015438;28;20229;-72
2023/02/25 15:29:59;;;;;;;;;;;;;;;;;;5019406;28;20181;-73
2023/02/25 15:32:27;;;;;;;;;;;;;;;;;;5015227;28;20366;-72
2023/02/25 15:34:53;;;;;;;;;;;;;;;;;;5014818;28;19917;-72
2023/02/25 15:37:19;;;;;;;;;;;;;;;;;;5015831;28;20393;-72
2023/02/25 15:39:45;;;;;;;;;;;;;;;;;;5015730;28;20375;-72
2023/02/25 15:42:11;;;;;;;;;;;;;;;;;;5016363;28;19917;-72
2023/02/25 15:44:37;;;;;;;;;;;;;;;;;;5011108;28;19955;-71
2023/02/25 15:47:04;;;;;;;;;;;;;;;;;;5013273;28;20007;-72
2023/02/25 15:49:30;;;;;;;;;;;;;;;;;;5015441;28;20262;-74
2023/02/25 15:51:56;;;;;;;;;;;;;;;;;;5017934;28;20035;-73
2023/02/25 15:54:22;;;;;;;;;;;;;;;;;;5013986;28;19943;-73
2023/02/25 15:56:48;;;;;;;;;;;;;;;;;;5016118;28;20551;-71
2023/02/25 15:59:14;;;;;;;;;;;;;;;;;;5018775;28;19944;-71
2023/02/25 16:01:41;;;;;;;;;;;;;;;;;;5007384;28;19921;-73
2023/02/25 16:04:07;;;;;;;;;;;;;;;;;;5011451;28;19956;-72
2023/02/25 16:06:33;;;;;;;;;;;;;;;;;;5012167;28;20031;-71
2023/02/25 16:08:59;;;;;;;;;;;;;;;;;;5016222;28;19921;-72
2023/02/25 16:11:25;;;;;;;;;;;;;;;;;;5010773;28;19924;-73
2023/02/25 16:13:51;;;;;;;;;;;;;;;;;;5012505;28;19925;-73
2023/02/25 16:16:17;;;;;;;;;;;;;;;;;;5014065;28;19921;-72
2023/02/25 16:18:46;;;;;;;;;;;;;;;;;;5016570;28;20041;-72
2023/02/25 16:21:12;;;;;;;;;;;;;;;;;;5012528;28;19921;-71
2023/02/25 16:23:38;;;;;;;;;;;;;;;;;;5017124;28;20425;-72
2023/02/25 16:26:04;;;;;;;;;;;;;;;;;;5009892;28;19913;-71
2023/02/25 16:28:30;;;;;;;;;;;;;;;;;;5011745;28;19947;-71
2023/02/25 16:30:56;;;;;;;;;;;;;;;;;;5014223;28;19924;-72
2023/02/25 16:33:22;;;;;;;;;;;;;;;;;;5020553;28;19922;-73
2023/02/25 16:35:48;;;;;;;;;;;;;;;;;;5015862;28;19917;-71
2023/02/25 16:38:14;;;;;;;;;;;;;;;;;;5016262;28;20322;-71
2023/02/25 16:40:40;;;;;;;;;;;;;;;;;;5014971;28;20278;-73